Latest Weather Observations for Ulladulla

IDN60801

Issued at 8:52 am EDT Tuesday 22 January 2019 (issued every 10 minutes, with the page automatically refreshed every 10 minutes)

About weather observations | Map of weather stations | Latest weather observations for NSW | Other Formats
Station Details ID: 069138 Name: ULLADULLA AWS Lat: -35.36 Lon: 150.48 Height: 35.7 m
Data from the previous 72 hours. | See also: Recent months at Ulladulla
Date/Time
EDT
Temp
°C
App
Temp
°C
Dew
Point
°C
Rel
Hum
%
Delta-T
°C
Wind Press
QNH
hPa
Press
MSL
hPa
Rain since
9am
mm
Dir  Spd
km/h
Gust
km/h
Spd
kts
Gust
kts
22/08:30am 22.9 26.1 21.7 93 0.8 NNW 7 19 4 10 1014.2 1014.1 0.0
22/08:00am 22.0 24.2 21.8 99 0.1 N 13 19 7 10 1014.3 1014.2 0.0
22/07:30am 21.4 23.3 21.4 100 0.0 N 13 19 7 10 1014.3 1014.2 0.0
22/07:00am 21.3 24.0 21.3 100 0.0 N 9 17 5 9 1014.1 1014.0 0.0
22/06:30am 21.2 23.0 21.2 100 0.0 N 13 19 7 10 1014.1 1014.0 0.0
22/06:00am 21.2 23.0 21.2 100 0.0 N 13 17 7 9 1014.0 1013.9 0.0
22/05:30am 21.2 23.4 21.2 100 0.0 N 11 19 6 10 1014.0 1013.9 0.0
22/05:00am 21.4 24.5 21.4 100 0.0 N 7 17 4 9 1013.9 1013.8 0.0
22/04:30am 21.2 24.2 21.2 100 0.0 N 7 11 4 6 1013.9 1013.8 0.0
22/04:00am 21.1 24.6 21.1 100 0.0 NNW 4 7 2 4 1014.0 1013.9 0.0
22/03:30am 21.3 25.2 21.1 99 0.1 NNW 2 4 1 2 1014.2 1014.1 0.0
22/03:00am 21.6 24.3 21.4 99 0.1 N 9 15 5 8 1014.4 1014.3 0.0
22/02:30am 21.7 24.4 21.4 98 0.2 N 9 15 5 8 1014.7 1014.6 0.0
22/02:00am 21.8 25.1 21.8 100 0.0 N 7 11 4 6 1014.8 1014.7 0.0
22/01:30am 21.9 24.3 21.6 98 0.2 N 11 15 6 8 1015.2 1015.1 0.0
22/01:00am 22.0 24.5 21.7 98 0.2 N 11 19 6 10 1015.2 1015.1 0.0
22/12:30am 22.0 25.2 21.3 96 0.5 N 6 11 3 6 1015.5 1015.4 0.0
22/12:00am 22.3 24.7 21.5 95 0.5 N 11 17 6 9 1015.7 1015.6 0.0
 
Date/Time
EDT
Temp
°C
App
Temp
°C
Dew
Point
°C
Rel
Hum
%
Delta-T
°C
Wind Press
QNH
hPa
Press
MSL
hPa
Rain since
9am
mm
Dir  Spd
km/h
Gust
km/h
Spd
kts
Gust
kts
21/11:30pm 22.2 24.3 21.7 97 0.3 N 13 20 7 11 1015.6 1015.5 0.0
21/11:00pm 22.1 24.3 21.9 99 0.1 N 13 22 7 12 1015.7 1015.6 0.0
21/10:30pm 22.0 24.9 21.8 99 0.1 N 9 15 5 8 1016.0 1015.9 0.0
21/10:00pm 22.3 25.3 22.0 98 0.2 NNW 9 13 5 7 1015.7 1015.6 0.0
21/09:30pm 22.4 26.1 21.4 94 0.7 NW 4 7 2 4 1015.4 1015.3 0.0
21/09:00pm 22.4 25.1 20.7 90 1.1 NE 7 17 4 9 1015.2 1015.1 0.0
21/08:30pm 22.8 25.5 20.3 86 1.6 N 6 13 3 7 1015.0 1014.9 0.0
21/08:00pm 23.0 25.7 20.3 85 1.7 N 6 15 3 8 1014.6 1014.5 0.0
21/07:30pm 23.2 25.9 20.3 84 1.9 N 6 11 3 6 1014.4 1014.3 0.0
21/07:00pm 23.4 25.5 20.2 82 2.1 NNE 9 17 5 9 1014.3 1014.2 0.0
21/06:30pm 23.9 26.4 20.2 80 2.4 N 7 17 4 9 1014.0 1013.9 0.0
21/06:00pm 23.4 22.3 20.3 83 2.0 NE 26 41 14 22 1014.0 1013.9 0.0
21/05:30pm 23.8 22.8 20.5 82 2.1 NE 26 39 14 21 1014.1 1014.0 0.0
21/05:00pm 23.8 21.5 20.5 82 2.1 NNE 33 44 18 24 1014.3 1014.2 0.0
21/04:30pm 23.8 24.2 20.9 84 1.9 NNE 20 28 11 15 1014.8 1014.7 0.0
21/04:00pm 23.2 23.2 20.2 83 1.9 NE 20 30 11 16 1015.2 1015.1 0.0
21/03:30pm 23.7 23.6 20.0 80 2.4 NNE 20 32 11 17 1015.5 1015.4 0.0
21/03:00pm 23.9 24.5 20.2 80 2.4 NE 17 28 9 15 1015.9 1015.8 0.0
21/02:30pm 24.6 26.2 20.7 79 2.6 NNE 13 19 7 10 1016.2 1016.1 0.0
21/02:00pm 24.2 25.0 19.9 77 2.8 NNE 15 24 8 13 1016.4 1016.3 0.0
21/01:30pm 23.9 25.3 20.4 81 2.3 NNE 13 19 7 10 1016.8 1016.7 0.0
21/01:00pm 24.0 25.0 20.3 80 2.4 NNE 15 20 8 11 1017.4 1017.3 0.0
21/12:30pm 23.6 25.0 20.3 82 2.1 NNE 13 19 7 10 1018.1 1018.0 0.0
21/12:00pm 23.7 26.9 21.2 86 1.6 N 6 11 3 6 1018.6 1018.5 0.0
21/11:30am 23.3 25.8 19.9 81 2.2 NNE 6 9 3 5 1018.8 1018.7 0.0
21/11:00am 22.6 25.1 19.9 85 1.7 NNE 6 13 3 7 1019.0 1018.9 0.0
21/10:30am 22.4 24.0 19.2 82 2.0 NNE 9 15 5 8 1019.0 1018.9 0.0
21/10:00am 23.0 24.7 18.5 76 2.8 NE 7 11 4 6 1019.0 1018.9 0.0
21/09:30am 22.0 24.5 18.2 79 2.4 SSE 2 4 1 2 1018.8 1018.7 0.0
21/09:00am 21.8 24.6 18.8 83 1.9 S 2 4 1 2 1019.1 1019.0 0.0
21/08:30am 21.8 24.0 19.2 85 1.6 SSW 6 7 3 4 1019.2 1019.1 0.0
21/08:00am 21.7 24.1 18.7 83 1.9 S 4 6 2 3 1019.0 1018.9 0.0
21/07:30am 21.5 24.0 19.1 86 1.5 S 4 6 2 3 1019.0 1018.9 0.0
21/07:00am 21.3 24.9 19.8 91 1.0 CALM 0 4 0 2 1019.1 1019.0 0.0
21/06:30am 20.8 23.9 19.5 92 0.8 SW 2 4 1 2 1019.0 1018.9 0.0
21/06:00am 20.6 23.4 19.6 94 0.6 SW 4 6 2 3 1018.8 1018.7 0.0
21/05:30am 20.6 23.1 19.9 96 0.4 SSW 6 6 3 3 1019.0 1018.9 0.0
21/05:00am 20.8 23.4 20.0 95 0.5 SSW 6 6 3 3 1019.1 1019.0 0.0
21/04:30am 20.7 22.9 19.2 91 0.9 S 6 6 3 3 1019.0 1018.9 0.0
21/04:00am 20.9 24.0 18.7 87 1.4 CALM 0 0 0 0 1019.0 1018.9 0.0
21/03:30am 21.0 24.2 18.8 87 1.4 CALM 0 2 0 1 1019.2 1019.1 0.0
21/03:00am 21.1 24.1 18.5 85 1.6 CALM 0 4 0 2 1019.6 1019.5 0.0
21/02:30am 21.0 24.0 18.4 85 1.6 CALM 0 0 0 0 1019.5 1019.4 0.0
21/02:00am 21.1 24.0 18.3 84 1.7 CALM 0 0 0 0 1019.9 1019.8 0.0
21/01:30am 21.4 24.5 18.6 84 1.8 CALM 0 2 0 1 1020.4 1020.3 0.0
21/01:00am 21.6 24.9 19.0 85 1.6 CALM 0 0 0 0 1020.5 1020.4 0.0
21/12:30am 21.5 24.7 18.9 85 1.6 CALM 0 0 0 0 1020.4 1020.3 0.0
21/12:00am 21.4 24.5 18.6 84 1.8 CALM 0 0 0 0 1020.2 1020.1 0.0
 
Date/Time
EDT
Temp
°C
App
Temp
°C
Dew
Point
°C
Rel
Hum
%
Delta-T
°C
Wind Press
QNH
hPa
Press
MSL
hPa
Rain since
9am
mm
Dir  Spd
km/h
Gust
km/h
Spd
kts
Gust
kts
20/11:30pm 21.6 24.7 18.6 83 1.9 CALM 0 0 0 0 1020.4 1020.3 0.0
20/11:00pm 21.7 24.7 18.5 82 2.0 CALM 0 0 0 0 1020.5 1020.4 0.0
20/10:30pm 21.8 24.9 18.6 82 2.0 CALM 0 0 0 0 1020.8 1020.7 0.0
20/10:00pm 21.8 24.9 18.6 82 2.0 CALM 0 0 0 0 1020.6 1020.5 0.0
20/09:30pm 21.7 24.6 18.3 81 2.1 CALM 0 0 0 0 1020.6 1020.5 0.0
20/09:00pm 21.7 24.6 18.1 80 2.2 CALM 0 2 0 1 1020.1 1020.0 0.0
20/08:30pm 21.7 24.1 17.9 79 2.4 NE 2 4 1 2 1019.8 1019.7 0.0
20/08:00pm 21.8 23.8 17.8 78 2.5 ENE 4 6 2 3 1019.5 1019.4 0.0
20/07:30pm 22.0 23.7 18.0 78 2.5 NE 6 7 3 4 1019.2 1019.1 0.0
20/07:00pm 22.2 23.8 17.8 76 2.7 ENE 6 13 3 7 1019.0 1018.9 0.0
20/06:30pm 22.2 23.8 17.8 76 2.7 E 6 11 3 6 1018.8 1018.7 0.0
20/06:00pm 22.0 23.4 17.4 75 2.8 ENE 6 11 3 6 1018.4 1018.3 0.0
20/05:30pm 22.1 22.9 17.2 74 3.0 ENE 9 13 5 7 1018.3 1018.2 0.0
20/05:00pm 22.1 23.2 17.2 74 3.0 ENE 7 15 4 8 1018.5 1018.4 0.0
20/04:30pm 22.2 23.3 17.1 73 3.1 ENE 7 17 4 9 1018.4 1018.3 0.0
20/04:00pm 22.3 22.2 17.0 72 3.2 ENE 13 20 7 11 1018.3 1018.2 0.0
20/03:30pm 23.0 23.4 18.1 74 3.1 NE 13 20 7 11 1018.5 1018.4 0.0
20/03:00pm 23.2 23.3 18.3 74 3.1 NE 15 22 8 12 1018.7 1018.6 0.0
20/02:30pm 22.7 22.4 17.4 72 3.3 NE 15 24 8 13 1018.8 1018.7 0.0
20/02:00pm 22.7 23.0 17.8 74 3.0 NE 13 20 7 11 1018.9 1018.8 0.0
20/01:30pm 22.6 22.6 17.1 71 3.4 NE 13 20 7 11 1019.4 1019.3 0.0
20/01:00pm 22.1 22.9 17.2 74 3.0 NE 9 15 5 8 1020.0 1019.9 0.0
20/12:30pm 21.7 23.0 17.5 77 2.6 NNE 7 9 4 5 1020.3 1020.2 0.0
20/12:00pm 21.1 22.6 16.7 76 2.7 NNE 4 7 2 4 1020.7 1020.6 0.0
20/11:30am 21.3 22.6 17.1 77 2.6 N 6 9 3 5 1020.9 1020.8 0.0
20/11:00am 20.9 21.8 16.1 74 2.9 N 6 9 3 5 1021.1 1021.0 0.0
20/10:30am 21.4 22.9 17.6 79 2.3 NNE 6 7 3 4 1021.2 1021.1 0.0
20/10:00am 21.4 23.0 17.0 76 2.7 NNE 4 6 2 3 1021.4 1021.3 0.0
20/09:30am 20.9 22.7 17.3 80 2.2 NW 4 7 2 4 1021.3 1021.2 0.0
20/09:00am 20.6 22.6 17.8 84 1.7 NW 4 7 2 4 1021.5 1021.4 0.2
20/08:30am 20.3 22.1 18.2 88 1.3 W 6 7 3 4 1021.6 1021.5 0.2
20/08:00am 19.8 21.4 17.9 89 1.2 SW 6 9 3 5 1021.4 1021.3 0.2
20/07:30am 19.4 21.5 18.2 93 0.7 SW 4 7 2 4 1021.1 1021.0 0.2
20/07:00am 19.2 21.3 18.2 94 0.6 WSW 4 6 2 3 1020.6 1020.5 0.2
20/06:30am 18.9 21.0 18.1 95 0.5 WSW 4 6 2 3 1020.5 1020.4 0.2
20/06:00am 18.9 21.1 18.4 97 0.3 SW 4 6 2 3 1020.5 1020.4 0.2
20/05:30am 18.9 21.2 18.6 98 0.2 SW 4 7 2 4 1020.6 1020.5 0.2
20/05:00am 18.9 20.8 18.6 98 0.2 SSW 6 9 3 5 1020.7 1020.6 0.2
20/04:30am 18.7 20.6 18.5 99 0.1 SSW 6 9 3 5 1020.2 1020.1 0.2
20/04:00am 18.1 20.2 17.3 95 0.5 S 2 6 1 3 1020.1 1020.0 0.2
20/03:30am 18.0 20.1 16.2 89 1.1 CALM 0 0 0 0 1020.3 1020.2 0.2
20/03:00am 18.4 20.2 16.4 88 1.2 NW 2 4 1 2 1020.6 1020.5 0.2
20/02:30am 18.8 20.4 16.9 89 1.1 NW 4 4 2 2 1020.8 1020.7 0.2
20/02:00am 19.0 20.7 17.1 89 1.1 NW 4 7 2 4 1021.1 1021.0 0.2
20/01:30am 18.8 20.0 17.3 91 0.9 NW 7 9 4 5 1021.4 1021.3 0.2
20/01:00am 18.6 20.2 17.8 95 0.5 NW 6 9 3 5 1021.7 1021.6 0.2
20/12:30am 18.6 20.1 18.1 97 0.3 NW 7 11 4 6 1021.7 1021.6 0.2
20/12:00am 18.6 20.1 18.1 97 0.3 NW 7 9 4 5 1022.0 1021.9 0.2
 
Date/Time
EDT
Temp
°C
App
Temp
°C
Dew
Point
°C
Rel
Hum
%
Delta-T
°C
Wind Press
QNH
hPa
Press
MSL
hPa
Rain since
9am
mm
Dir  Spd
km/h
Gust
km/h
Spd
kts
Gust
kts
19/11:30pm 18.7 20.5 18.4 98 0.2 NW 6 9 3 5 1022.2 1022.1 0.2
19/11:00pm 18.9 20.7 18.4 97 0.3 NW 6 6 3 3 1022.3 1022.2 0.2
19/10:30pm 18.9 21.3 17.9 94 0.6 WNW 2 6 1 3 1022.2 1022.1 0.2
19/10:00pm 18.9 20.4 17.7 93 0.7 WSW 6 7 3 4 1022.1 1022.0 0.2
19/09:30pm 19.3 19.9 16.7 85 1.6 S 9 15 5 8 1021.7 1021.6 0.0
19/09:00pm 19.1 19.6 16.5 85 1.6 S 9 17 5 9 1021.4 1021.3 0.0
19/08:30pm 19.5 19.9 16.3 82 1.9 S 9 13 5 7 1021.1 1021.0 0.0
19/08:00pm 19.6 20.0 16.4 82 1.9 S 9 19 5 10 1020.7 1020.6 0.0
19/07:30pm 19.6 19.3 16.4 82 1.9 S 13 22 7 12 1020.6 1020.5 0.0
19/07:00pm 19.7 20.1 16.2 80 2.1 SSE 9 13 5 7 1020.4 1020.3 0.0
19/06:30pm 20.1 21.0 16.5 80 2.2 SSE 7 13 4 7 1020.1 1020.0 0.0
19/06:00pm 20.0 19.7 16.4 80 2.2 S 13 22 7 12 1019.8 1019.7 0.0
19/05:30pm 20.4 20.8 16.2 77 2.5 SSE 9 15 5 8 1019.5 1019.4 0.0
19/05:00pm 20.7 20.3 16.1 75 2.8 SSE 13 19 7 10 1019.5 1019.4 0.0
19/04:30pm 20.9 20.5 16.3 75 2.8 SSE 13 19 7 10 1019.6 1019.5 0.0
19/04:00pm 20.8 20.0 16.2 75 2.8 SSE 15 20 8 11 1019.6 1019.5 0.0
19/03:30pm 21.0 20.9 17.0 78 2.4 SSE 13 20 7 11 1019.5 1019.4 0.0
19/03:00pm 21.3 21.6 17.1 77 2.6 S 11 19 6 10 1019.6 1019.5 0.0
19/02:30pm 21.9 23.2 18.5 81 2.1 S 9 15 5 8 1019.6 1019.5 0.0
19/02:00pm 21.5 22.1 17.7 79 2.3 S 11 17 6 9 1019.6 1019.5 0.0
19/01:30pm 21.4 22.0 17.6 79 2.3 S 11 17 6 9 1019.5 1019.4 0.0
19/01:00pm 21.1 20.2 16.9 77 2.6 S 17 24 9 13 1019.4 1019.3 0.0
19/12:30pm 21.3 21.5 17.7 80 2.2 S 13 17 7 9 1019.2 1019.1 0.0
19/12:00pm 21.4 20.7 17.4 78 2.5 S 17 20 9 11 1019.0 1018.9 0.0
19/11:30am 21.4 20.3 17.2 77 2.6 S 19 26 10 14 1018.7 1018.6 0.0
19/11:00am 21.4 20.3 17.4 78 2.5 S 19 26 10 14 1018.5 1018.4 0.0
19/10:30am 21.3 19.7 17.5 79 2.3 S 22 30 12 16 1018.4 1018.3 0.0
19/10:00am 21.3 20.2 17.7 80 2.2 S 20 30 11 16 1018.2 1018.1 0.0
19/09:30am 21.1 20.7 18.1 83 1.9 S 17 24 9 13 1018.2 1018.1 0.0
19/09:00am 21.3 21.3 18.9 86 1.5 S 17 24 9 13 1017.7 1017.6 7.6

Other Formats:

Comma delimited format used in spreadsheet applications
http://www.bom.gov.au/fwo/IDN60801/IDN60801.94938.axf

JavaScript Object Notation format (JSON) in row-major order
http://www.bom.gov.au/fwo/IDN60801/IDN60801.94938.json